Time;durP1;ratioP1;P1;durP2;ratioP2;P2;SDS_P1;SDS_P2;PMS_P1;PMS_P2;Temp;Humidity;BMP_temperature;BMP_pressure;BME280_temperature;BME280_humidity;BME280_pressure;Samples;Min_cycle;Max_cycle;Signal;HPM_P1;HPM_P2
2023/07/29 00:01:28;;;;;;;0.10;0.10;;;;;;;;;;6210034;23;20030;-85
2023/07/29 00:03:54;;;;;;;0.03;0.03;;;;;;;;;;6210395;22;20020;-86
2023/07/29 00:06:21;;;;;;;0.00;0.00;;;;;;;;;;6291785;22;20021;-86
2023/07/29 00:08:55;;;;;;;0.00;0.00;;;;;;;;;;6237155;22;20001;-86
2023/07/29 00:11:24;;;;;;;0.10;0.10;;;;;;;;;;6211563;22;20023;-86
2023/07/29 00:13:54;;;;;;;0.03;0.03;;;;;;;;;;6210219;23;20072;-86
2023/07/29 00:16:22;;;;;;;0.10;0.10;;;;;;;;;;6210696;22;20012;-85
2023/07/29 00:18:51;;;;;;;0.00;0.00;;;;;;;;;;6210039;22;20027;-86
2023/07/29 00:21:20;;;;;;;0.00;0.00;;;;;;;;;;6205744;22;20035;-87
2023/07/29 00:24:06;;;;;;;0.10;0.10;;;;;;;;;;6304359;22;20046;-86
2023/07/29 00:26:33;;;;;;;0.00;0.00;;;;;;;;;;6210378;22;20028;-85
2023/07/29 00:29:11;;;;;;;0.00;0.00;;;;;;;;;;6207988;22;20040;-84
2023/07/29 00:31:40;;;;;;;0.10;0.10;;;;;;;;;;6211582;22;20154;-84
2023/07/29 00:34:17;;;;;;;0.00;0.00;;;;;;;;;;6238196;22;20016;-84
2023/07/29 00:36:49;;;;;;;0.00;0.00;;;;;;;;;;6291132;22;20040;-86
2023/07/29 00:39:16;;;;;;;0.00;0.00;;;;;;;;;;6233702;22;20017;-86
2023/07/29 00:41:42;;;;;;;0.00;0.00;;;;;;;;;;6209190;22;20572;-85
2023/07/29 00:44:10;;;;;;;0.00;0.00;;;;;;;;;;6208471;22;20017;-85
2023/07/29 00:46:52;;;;;;;0.03;0.03;;;;;;;;;;6237638;22;20034;-85
2023/07/29 00:49:19;;;;;;;0.00;0.00;;;;;;;;;;6208302;22;20017;-86
2023/07/29 00:51:50;;;;;;;0.10;0.10;;;;;;;;;;6209222;22;20013;-85
2023/07/29 00:54:17;;;;;;;0.00;0.00;;;;;;;;;;6206387;23;20028;-86
2023/07/29 00:56:44;;;;;;;0.00;0.00;;;;;;;;;;6209196;22;20021;-85
2023/07/29 00:59:17;;;;;;;0.00;0.00;;;;;;;;;;6284960;22;20020;-82
2023/07/29 01:01:49;;;;;;;0.00;0.00;;;;;;;;;;6206614;22;20042;-86
2023/07/29 01:04:24;;;;;;;0.08;0.08;;;;;;;;;;6206006;22;20041;-85
2023/07/29 01:07:10;;;;;;;0.08;0.08;;;;;;;;;;6207804;22;20013;-82
2023/07/29 01:09:59;;;;;;;0.10;0.10;;;;;;;;;;6207384;23;20020;-86
2023/07/29 01:12:47;;;;;;;0.10;0.10;;;;;;;;;;6208327;22;20021;-86
2023/07/29 01:15:35;;;;;;;0.00;0.00;;;;;;;;;;6209097;22;20040;-86
2023/07/29 01:18:13;;;;;;;0.15;0.15;;;;;;;;;;6209613;22;20046;-86
2023/07/29 01:20:44;;;;;;;0.00;0.00;;;;;;;;;;6211136;22;20030;-87
2023/07/29 01:23:12;;;;;;;0.10;0.10;;;;;;;;;;6209194;22;20021;-86
2023/07/29 01:25:45;;;;;;;0.00;0.00;;;;;;;;;;6209480;22;20013;-87
2023/07/29 01:28:32;;;;;;;0.00;0.00;;;;;;;;;;6238324;22;20070;-86
2023/07/29 01:31:42;;;;;;;0.15;0.15;;;;;;;;;;6210330;22;20023;-85
2023/07/29 01:34:44;;;;;;;0.10;0.10;;;;;;;;;;6225637;23;20001;-87
2023/07/29 01:37:16;;;;;;;0.10;0.10;;;;;;;;;;6211161;22;19997;-85
2023/07/29 01:39:48;;;;;;;0.10;0.10;;;;;;;;;;6212109;22;20020;-86
2023/07/29 01:42:31;;;;;;;0.10;0.10;;;;;;;;;;6234887;23;20443;-86
2023/07/29 01:45:14;;;;;;;0.00;0.00;;;;;;;;;;6208960;22;20052;-85
2023/07/29 01:47:43;;;;;;;0.10;0.10;;;;;;;;;;6325460;22;20017;-86
2023/07/29 01:50:24;;;;;;;0.00;0.00;;;;;;;;;;6238574;22;20044;-85
2023/07/29 01:52:53;;;;;;;0.00;0.00;;;;;;;;;;6289854;22;20016;-84
2023/07/29 01:55:22;;;;;;;0.08;0.08;;;;;;;;;;6211945;22;20023;-85
2023/07/29 01:57:58;;;;;;;0.00;0.00;;;;;;;;;;6212914;22;20001;-86
2023/07/29 02:00:28;;;;;;;0.20;0.20;;;;;;;;;;6212541;22;20050;-85
2023/07/29 02:02:54;;;;;;;0.00;0.00;;;;;;;;;;6338678;22;20011;-87
2023/07/29 02:05:21;;;;;;;0.10;0.10;;;;;;;;;;6212365;22;20023;-84
2023/07/29 02:08:07;;;;;;;0.10;0.10;;;;;;;;;;6211971;22;20019;-85
2023/07/29 02:10:39;;;;;;;0.10;0.10;;;;;;;;;;6213037;22;20005;-84
2023/07/29 02:13:24;;;;;;;0.20;0.20;;;;;;;;;;6213786;22;20019;-85
2023/07/29 02:16:08;;;;;;;0.00;0.00;;;;;;;;;;6303741;22;20047;-85
2023/07/29 02:18:55;;;;;;;0.10;0.10;;;;;;;;;;6302377;22;20007;-85
2023/07/29 02:21:26;;;;;;;0.00;0.00;;;;;;;;;;6248941;22;20021;-86
2023/07/29 02:23:53;;;;;;;0.00;0.00;;;;;;;;;;6208708;22;20021;-85
2023/07/29 02:26:21;;;;;;;0.08;0.08;;;;;;;;;;6213882;22;20036;-85
2023/07/29 02:28:47;;;;;;;0.00;0.00;;;;;;;;;;6208673;22;20006;-85
2023/07/29 02:31:23;;;;;;;0.10;0.10;;;;;;;;;;6208959;23;20044;-87
2023/07/29 02:33:52;;;;;;;0.05;0.05;;;;;;;;;;6235470;23;20042;-86
2023/07/29 02:36:22;;;;;;;0.03;0.03;;;;;;;;;;6235146;22;20005;-84
2023/07/29 02:41:25;;;;;;;0.13;0.13;;;;;;;;;;6236539;22;20025;-85
2023/07/29 02:43:58;;;;;;;0.10;0.10;;;;;;;;;;6289635;22;20009;-86
2023/07/29 02:46:25;;;;;;;0.03;0.03;;;;;;;;;;6230692;22;20028;-84
2023/07/29 02:49:11;;;;;;;0.10;0.10;;;;;;;;;;6239179;22;20017;-85
2023/07/29 02:51:47;;;;;;;0.00;0.00;;;;;;;;;;6209698;22;20466;-86
2023/07/29 02:54:18;;;;;;;0.10;0.10;;;;;;;;;;6209451;22;20035;-86
2023/07/29 02:56:46;;;;;;;0.10;0.10;;;;;;;;;;6207920;22;20039;-85
2023/07/29 02:59:22;;;;;;;0.10;0.10;;;;;;;;;;6209724;23;20064;-86
2023/07/29 03:01:54;;;;;;;0.10;0.10;;;;;;;;;;6211425;23;20062;-85
2023/07/29 03:04:32;;;;;;;0.03;0.03;;;;;;;;;;6211232;22;20024;-87
2023/07/29 03:07:07;;;;;;;0.10;0.10;;;;;;;;;;6214221;22;20005;-85
2023/07/29 03:09:44;;;;;;;0.10;0.10;;;;;;;;;;6235026;22;20016;-85
2023/07/29 03:12:21;;;;;;;0.10;0.10;;;;;;;;;;6211094;22;20024;-86
2023/07/29 03:14:54;;;;;;;0.00;0.00;;;;;;;;;;6211794;22;20028;-86
2023/07/29 03:17:29;;;;;;;0.00;0.00;;;;;;;;;;6342752;22;20013;-85
2023/07/29 03:20:01;;;;;;;0.00;0.00;;;;;;;;;;6208843;23;20048;-86
2023/07/29 03:22:37;;;;;;;0.10;0.10;;;;;;;;;;6210270;22;20059;-85
2023/07/29 03:25:12;;;;;;;0.10;0.10;;;;;;;;;;6211133;23;20013;-85
2023/07/29 03:27:49;;;;;;;0.10;0.10;;;;;;;;;;6236268;22;20035;-87
2023/07/29 03:30:15;;;;;;;0.10;0.10;;;;;;;;;;6211575;22;20035;-85
2023/07/29 03:32:47;;;;;;;0.00;0.00;;;;;;;;;;6211144;22;20017;-85
2023/07/29 03:35:17;;;;;;;0.10;0.10;;;;;;;;;;6290404;22;20020;-85
2023/07/29 03:37:44;;;;;;;0.00;0.00;;;;;;;;;;6210928;22;20004;-86
2023/07/29 03:40:15;;;;;;;0.03;0.03;;;;;;;;;;6238795;22;20024;-82
2023/07/29 03:42:43;;;;;;;0.10;0.10;;;;;;;;;;6235421;22;20048;-83
2023/07/29 03:45:21;;;;;;;0.10;0.10;;;;;;;;;;6208859;22;20098;-85
2023/07/29 03:47:56;;;;;;;0.05;0.05;;;;;;;;;;6237434;22;20017;-85
2023/07/29 03:50:23;;;;;;;0.08;0.08;;;;;;;;;;6315929;22;20017;-85
2023/07/29 03:52:52;;;;;;;0.10;0.10;;;;;;;;;;6209745;23;20444;-85
2023/07/29 03:55:23;;;;;;;0.00;0.00;;;;;;;;;;6208976;23;20021;-86
2023/07/29 03:57:52;;;;;;;0.10;0.10;;;;;;;;;;6314231;22;20040;-86
2023/07/29 04:00:31;;;;;;;0.10;0.10;;;;;;;;;;6241057;22;20021;-87
2023/07/29 04:03:08;;;;;;;0.00;0.00;;;;;;;;;;6209126;22;20016;-85
2023/07/29 04:05:34;;;;;;;0.00;0.00;;;;;;;;;;6186300;23;20087;-85
2023/07/29 04:08:01;;;;;;;0.10;0.10;;;;;;;;;;6209573;22;20064;-86
2023/07/29 04:10:31;;;;;;;0.00;0.00;;;;;;;;;;6231900;23;20013;-86
2023/07/29 04:13:05;;;;;;;0.10;0.10;;;;;;;;;;6236475;22;20016;-87
2023/07/29 04:15:38;;;;;;;0.10;0.10;;;;;;;;;;6208849;22;20024;-86
2023/07/29 04:18:04;;;;;;;0.10;0.10;;;;;;;;;;6209576;23;20035;-84
2023/07/29 04:20:37;;;;;;;0.00;0.00;;;;;;;;;;6208941;23;20047;-85
2023/07/29 04:23:07;;;;;;;0.10;0.10;;;;;;;;;;6209813;22;20096;-86
2023/07/29 04:25:37;;;;;;;0.10;0.10;;;;;;;;;;6314291;22;20016;-85
2023/07/29 04:43:42;;;;;;;0.08;0.08;;;;;;;;;;6251850;22;20008;-91
2023/07/29 04:56:50;;;;;;;0.10;0.10;;;;;;;;;;6221932;22;20030;-93
2023/07/29 05:56:31;;;;;;;0.00;0.00;;;;;;;;;;6190897;22;20008;-92
2023/07/29 07:32:55;;;;;;;0.08;0.08;;;;;;;;;;6242386;22;20036;-93
2023/07/29 08:10:03;;;;;;;0.00;0.00;;;;;;;;;;6219262;22;20019;-91
2023/07/29 08:15:23;;;;;;;0.00;0.00;;;;;;;;;;6253526;22;19899;-91
2023/07/29 08:18:08;;;;;;;0.10;0.10;;;;;;;;;;6215694;22;20027;-91
2023/07/29 08:28:21;;;;;;;0.00;0.00;;;;;;;;;;6162285;22;20021;-92
2023/07/29 08:30:47;;;;;;;0.00;0.00;;;;;;;;;;6131397;23;20017;-92
2023/07/29 08:33:13;;;;;;;0.05;0.05;;;;;;;;;;6129408;23;20088;-90
2023/07/29 08:35:39;;;;;;;0.00;0.00;;;;;;;;;;6130574;23;20478;-89
2023/07/29 08:38:06;;;;;;;0.00;0.00;;;;;;;;;;6129428;23;20448;-91
2023/07/29 08:40:32;;;;;;;0.10;0.10;;;;;;;;;;6130751;23;20028;-93
2023/07/29 08:42:59;;;;;;;0.10;0.10;;;;;;;;;;6129921;23;20021;-91
2023/07/29 08:45:25;;;;;;;0.05;0.05;;;;;;;;;;6135190;23;20020;-93
2023/07/29 08:47:55;;;;;;;0.00;0.00;;;;;;;;;;6139082;23;20034;-91
2023/07/29 08:50:22;;;;;;;0.10;0.10;;;;;;;;;;6131338;23;20026;-93
2023/07/29 08:52:48;;;;;;;0.10;0.10;;;;;;;;;;6130884;23;20005;-92
2023/07/29 08:55:14;;;;;;;0.00;0.00;;;;;;;;;;6131051;23;20040;-93
2023/07/29 08:57:41;;;;;;;0.08;0.08;;;;;;;;;;6130106;23;20066;-87
2023/07/29 09:00:07;;;;;;;0.10;0.10;;;;;;;;;;6133413;23;20043;-91
2023/07/29 09:02:33;;;;;;;0.10;0.10;;;;;;;;;;6129991;23;20092;-90
2023/07/29 09:04:59;;;;;;;0.00;0.00;;;;;;;;;;6130972;23;20259;-91
2023/07/29 09:07:26;;;;;;;0.10;0.10;;;;;;;;;;6129025;23;20305;-90
2023/07/29 09:09:52;;;;;;;0.00;0.00;;;;;;;;;;6130195;23;20014;-90
2023/07/29 09:12:18;;;;;;;0.03;0.03;;;;;;;;;;6130652;23;20524;-91
2023/07/29 09:14:44;;;;;;;0.00;0.00;;;;;;;;;;6131303;23;20017;-93
2023/07/29 09:17:10;;;;;;;0.08;0.08;;;;;;;;;;6129196;22;20363;-92
2023/07/29 09:19:36;;;;;;;0.00;0.00;;;;;;;;;;6130174;23;20071;-91
2023/07/29 09:22:02;;;;;;;0.10;0.10;;;;;;;;;;6129951;23;20036;-92
2023/07/29 09:24:32;;;;;;;0.10;0.10;;;;;;;;;;6129723;23;20079;-92
2023/07/29 09:26:58;;;;;;;0.10;0.10;;;;;;;;;;6141497;22;20013;-92
2023/07/29 09:29:24;;;;;;;0.00;0.00;;;;;;;;;;6159881;22;20019;-90
2023/07/29 09:31:50;;;;;;;0.00;0.00;;;;;;;;;;6159832;23;20065;-92
2023/07/29 09:34:17;;;;;;;0.08;0.08;;;;;;;;;;6159586;22;20508;-94
2023/07/29 09:36:43;;;;;;;0.00;0.00;;;;;;;;;;6159112;22;20052;-91
2023/07/29 09:39:13;;;;;;;0.00;0.00;;;;;;;;;;6157974;22;20024;-89
2023/07/29 09:41:39;;;;;;;0.10;0.10;;;;;;;;;;6156877;22;20029;-89
2023/07/29 09:44:05;;;;;;;0.10;0.10;;;;;;;;;;6157667;23;20016;-91
2023/07/29 09:46:35;;;;;;;0.15;0.15;;;;;;;;;;6159446;22;20013;-89
2023/07/29 09:49:05;;;;;;;0.08;0.08;;;;;;;;;;6159199;22;20047;-91
2023/07/29 09:51:31;;;;;;;0.00;0.00;;;;;;;;;;6157686;22;20021;-92
2023/07/29 09:53:58;;;;;;;0.00;0.00;;;;;;;;;;6157923;23;20012;-90
2023/07/29 09:56:28;;;;;;;0.05;0.05;;;;;;;;;;6158936;23;20397;-91
2023/07/29 09:58:57;;;;;;;0.10;0.10;;;;;;;;;;6158156;23;20024;-91
2023/07/29 10:01:23;;;;;;;0.00;0.00;;;;;;;;;;6156142;23;20104;-90
2023/07/29 10:03:49;;;;;;;0.10;0.10;;;;;;;;;;6159573;22;20052;-90
2023/07/29 10:06:16;;;;;;;0.10;0.10;;;;;;;;;;6158896;22;20159;-92
2023/07/29 10:08:43;;;;;;;0.00;0.00;;;;;;;;;;6158445;22;20017;-91
2023/07/29 10:11:09;;;;;;;0.00;0.00;;;;;;;;;;6158799;22;20021;-88
2023/07/29 10:13:36;;;;;;;0.00;0.00;;;;;;;;;;6158587;22;20020;-88
2023/07/29 10:16:02;;;;;;;0.00;0.00;;;;;;;;;;6159438;23;20060;-87
2023/07/29 10:18:29;;;;;;;0.00;0.00;;;;;;;;;;6159766;23;20017;-92
2023/07/29 10:20:57;;;;;;;0.00;0.00;;;;;;;;;;6158054;23;20021;-91
2023/07/29 10:23:25;;;;;;;0.03;0.03;;;;;;;;;;6157219;22;20112;-91
2023/07/29 10:25:53;;;;;;;0.10;0.10;;;;;;;;;;6158464;23;20021;-90
2023/07/29 10:28:21;;;;;;;0.00;0.00;;;;;;;;;;6161337;23;20001;-91
2023/07/29 10:30:47;;;;;;;0.10;0.10;;;;;;;;;;6163335;22;20016;-93
2023/07/29 10:33:16;;;;;;;0.10;0.10;;;;;;;;;;6158008;23;20017;-89
2023/07/29 10:35:42;;;;;;;0.10;0.10;;;;;;;;;;6158469;22;20048;-89
2023/07/29 10:38:09;;;;;;;0.00;0.00;;;;;;;;;;6156710;22;20160;-89
2023/07/29 10:40:46;;;;;;;0.10;0.10;;;;;;;;;;6156575;22;20520;-88
2023/07/29 10:43:14;;;;;;;0.10;0.10;;;;;;;;;;6155582;22;20093;-89
2023/07/29 10:45:41;;;;;;;0.00;0.00;;;;;;;;;;6156178;22;20036;-84
2023/07/29 10:48:14;;;;;;;0.10;0.10;;;;;;;;;;6155168;23;20045;-90
2023/07/29 10:50:40;;;;;;;0.10;0.10;;;;;;;;;;6155884;22;20470;-90
2023/07/29 10:53:06;;;;;;;0.10;0.10;;;;;;;;;;6155737;23;20024;-88
2023/07/29 10:55:36;;;;;;;0.10;0.10;;;;;;;;;;6155913;22;20021;-88
2023/07/29 10:58:07;;;;;;;0.00;0.00;;;;;;;;;;6155736;22;20017;-89
2023/07/29 11:00:33;;;;;;;0.15;0.15;;;;;;;;;;6155939;22;20489;-89
2023/07/29 11:03:01;;;;;;;0.00;0.00;;;;;;;;;;6157014;23;20100;-89
2023/07/29 11:05:27;;;;;;;0.05;0.05;;;;;;;;;;6157642;22;20069;-90
2023/07/29 11:07:53;;;;;;;0.00;0.00;;;;;;;;;;6157373;23;20013;-90
2023/07/29 11:10:19;;;;;;;0.00;0.00;;;;;;;;;;6156483;23;20023;-87
2023/07/29 11:12:51;;;;;;;0.00;0.00;;;;;;;;;;6157201;22;20055;-91
2023/07/29 11:15:20;;;;;;;0.00;0.00;;;;;;;;;;6157243;22;20020;-93
2023/07/29 11:17:50;;;;;;;0.08;0.08;;;;;;;;;;6158508;22;20020;-91
2023/07/29 11:20:17;;;;;;;0.10;0.10;;;;;;;;;;6157625;23;20091;-90
2023/07/29 11:22:43;;;;;;;0.00;0.00;;;;;;;;;;6157154;23;20446;-91
2023/07/29 11:25:11;;;;;;;0.00;0.00;;;;;;;;;;6157322;23;20021;-90
2023/07/29 11:27:37;;;;;;;0.03;0.03;;;;;;;;;;6157610;22;20312;-91
2023/07/29 11:30:08;;;;;;;0.08;0.08;;;;;;;;;;6158132;23;20056;-91
2023/07/29 11:32:34;;;;;;;0.10;0.10;;;;;;;;;;6157846;22;20059;-92
2023/07/29 11:35:08;;;;;;;0.00;0.00;;;;;;;;;;6157409;22;20327;-92
2023/07/29 11:37:35;;;;;;;0.10;0.10;;;;;;;;;;6156805;22;20017;-90
2023/07/29 11:40:02;;;;;;;0.00;0.00;;;;;;;;;;6157500;22;20017;-92
2023/07/29 11:42:28;;;;;;;0.10;0.10;;;;;;;;;;6157076;22;20336;-92
2023/07/29 11:44:58;;;;;;;0.10;0.10;;;;;;;;;;6156631;23;20031;-89
2023/07/29 11:47:24;;;;;;;0.10;0.10;;;;;;;;;;6156909;22;20407;-90
2023/07/29 11:49:50;;;;;;;0.00;0.00;;;;;;;;;;6157211;22;20098;-91
2023/07/29 11:52:19;;;;;;;0.03;0.03;;;;;;;;;;6156282;23;20017;-91
2023/07/29 11:54:46;;;;;;;0.00;0.00;;;;;;;;;;6157399;23;20021;-92
2023/07/29 11:57:12;;;;;;;0.00;0.00;;;;;;;;;;6157240;22;20027;-88
2023/07/29 11:59:39;;;;;;;0.10;0.10;;;;;;;;;;6155995;23;20351;-89
2023/07/29 12:02:07;;;;;;;0.00;0.00;;;;;;;;;;6157010;22;20082;-93
2023/07/29 12:04:34;;;;;;;0.00;0.00;;;;;;;;;;6158238;22;20021;-91
2023/07/29 12:07:00;;;;;;;0.08;0.08;;;;;;;;;;6158043;22;20071;-91
2023/07/29 12:09:30;;;;;;;0.10;0.10;;;;;;;;;;6157884;22;20021;-90
2023/07/29 12:11:56;;;;;;;0.00;0.00;;;;;;;;;;6158078;23;20013;-90
2023/07/29 12:14:22;;;;;;;0.10;0.10;;;;;;;;;;6157388;22;20164;-91
2023/07/29 12:16:49;;;;;;;0.10;0.10;;;;;;;;;;6157872;22;20411;-90
2023/07/29 12:19:17;;;;;;;0.10;0.10;;;;;;;;;;6157396;23;20028;-90
2023/07/29 12:21:43;;;;;;;0.10;0.10;;;;;;;;;;6156453;23;20332;-90
2023/07/29 12:24:10;;;;;;;0.00;0.00;;;;;;;;;;6157501;22;20072;-89
2023/07/29 12:26:39;;;;;;;0.10;0.10;;;;;;;;;;6157660;22;20052;-92
2023/07/29 12:29:12;;;;;;;0.10;0.10;;;;;;;;;;6159119;23;20021;-91
2023/07/29 12:31:38;;;;;;;0.00;0.00;;;;;;;;;;6157726;22;20013;-92
2023/07/29 12:34:04;;;;;;;0.05;0.05;;;;;;;;;;6157889;22;20025;-89
2023/07/29 12:36:45;;;;;;;0.00;0.00;;;;;;;;;;6157243;23;20005;-91
2023/07/29 12:39:21;;;;;;;0.10;0.10;;;;;;;;;;6157486;22;20042;-92
2023/07/29 12:41:47;;;;;;;0.03;0.03;;;;;;;;;;6157633;22;20377;-90
2023/07/29 12:44:13;;;;;;;0.10;0.10;;;;;;;;;;6158263;22;20474;-92
2023/07/29 12:46:41;;;;;;;0.00;0.00;;;;;;;;;;6158057;22;20405;-92
2023/07/29 12:49:07;;;;;;;0.10;0.10;;;;;;;;;;6156818;22;20098;-92
2023/07/29 12:51:34;;;;;;;0.15;0.15;;;;;;;;;;6156863;23;20530;-92
2023/07/29 12:54:00;;;;;;;0.10;0.10;;;;;;;;;;6157939;22;20021;-93
2023/07/29 12:59:17;;;;;;;0.00;0.00;;;;;;;;;;6157941;23;20021;-91
2023/07/29 13:01:43;;;;;;;0.00;0.00;;;;;;;;;;6157179;22;20032;-91
2023/07/29 13:04:10;;;;;;;0.20;0.20;;;;;;;;;;6158183;23;20467;-91
2023/07/29 13:06:36;;;;;;;0.03;0.03;;;;;;;;;;6157758;22;20020;-92
2023/07/29 13:09:03;;;;;;;0.08;0.08;;;;;;;;;;6157864;22;20013;-92
2023/07/29 13:11:29;;;;;;;0.15;0.15;;;;;;;;;;6157714;22;20021;-94
2023/07/29 13:13:55;;;;;;;0.08;0.08;;;;;;;;;;6157698;22;20021;-92
2023/07/29 13:16:21;;;;;;;0.00;0.00;;;;;;;;;;6156841;22;20028;-91
2023/07/29 13:18:47;;;;;;;0.00;0.00;;;;;;;;;;6157285;23;20028;-90
2023/07/29 13:21:13;;;;;;;0.10;0.10;;;;;;;;;;6157142;22;20040;-89
2023/07/29 13:23:39;;;;;;;0.00;0.00;;;;;;;;;;6157171;22;20024;-92
2023/07/29 13:26:05;;;;;;;0.00;0.00;;;;;;;;;;6156878;22;20013;-92
2023/07/29 13:28:31;;;;;;;0.20;0.20;;;;;;;;;;6157688;23;20040;-91
2023/07/29 13:30:57;;;;;;;0.00;0.00;;;;;;;;;;6157601;22;20443;-93
2023/07/29 13:33:23;;;;;;;0.00;0.00;;;;;;;;;;6156500;23;20021;-89
2023/07/29 13:35:50;;;;;;;0.00;0.00;;;;;;;;;;6156689;22;20474;-92
2023/07/29 13:38:16;;;;;;;0.10;0.10;;;;;;;;;;6158175;23;20110;-93
2023/07/29 13:40:42;;;;;;;0.10;0.10;;;;;;;;;;6157678;22;20017;-93
2023/07/29 13:43:08;;;;;;;0.05;0.05;;;;;;;;;;6156875;22;20373;-91
2023/07/29 13:45:35;;;;;;;0.00;0.00;;;;;;;;;;6158412;23;20317;-93
2023/07/29 13:48:01;;;;;;;0.10;0.10;;;;;;;;;;6158246;23;20021;-92
2023/07/29 13:50:27;;;;;;;0.00;0.00;;;;;;;;;;6158035;22;20357;-92
2023/07/29 13:52:53;;;;;;;0.00;0.00;;;;;;;;;;6157743;23;20021;-93
2023/07/29 13:55:19;;;;;;;0.20;0.20;;;;;;;;;;6158215;22;20028;-90
2023/07/29 13:57:45;;;;;;;0.03;0.03;;;;;;;;;;6158056;22;20095;-92
2023/07/29 14:00:12;;;;;;;0.08;0.08;;;;;;;;;;6157805;23;20320;-93
2023/07/29 14:02:38;;;;;;;0.10;0.10;;;;;;;;;;6157210;22;20469;-91
2023/07/29 14:05:05;;;;;;;0.00;0.00;;;;;;;;;;6157542;22;20043;-91
2023/07/29 14:07:31;;;;;;;0.10;0.10;;;;;;;;;;6158043;23;20006;-91
2023/07/29 14:09:57;;;;;;;0.10;0.10;;;;;;;;;;6157541;23;20095;-91
2023/07/29 14:12:23;;;;;;;0.10;0.10;;;;;;;;;;6156712;22;20100;-90
2023/07/29 14:14:49;;;;;;;0.10;0.10;;;;;;;;;;6157165;22;20055;-91
2023/07/29 14:17:15;;;;;;;0.17;0.17;;;;;;;;;;6157378;22;20028;-91
2023/07/29 14:19:42;;;;;;;0.00;0.00;;;;;;;;;;6157383;22;20028;-91
2023/07/29 14:22:08;;;;;;;0.08;0.08;;;;;;;;;;6157199;22;20049;-93
2023/07/29 14:24:34;;;;;;;0.00;0.00;;;;;;;;;;6156881;22;20021;-89
2023/07/29 14:27:00;;;;;;;0.00;0.00;;;;;;;;;;6156940;22;20032;-90
2023/07/29 14:29:26;;;;;;;0.10;0.10;;;;;;;;;;6157056;22;20401;-91
2023/07/29 14:31:52;;;;;;;0.00;0.00;;;;;;;;;;6156212;23;20447;-89
2023/07/29 14:34:18;;;;;;;0.03;0.03;;;;;;;;;;6156041;23;20028;-87
2023/07/29 14:36:54;;;;;;;0.05;0.05;;;;;;;;;;6157272;22;20029;-90
2023/07/29 14:39:20;;;;;;;0.10;0.10;;;;;;;;;;6157555;22;20024;-89
2023/07/29 14:41:46;;;;;;;0.00;0.00;;;;;;;;;;6156716;22;20089;-90
2023/07/29 14:44:13;;;;;;;0.13;0.13;;;;;;;;;;6157914;22;20092;-90
2023/07/29 14:46:39;;;;;;;0.10;0.10;;;;;;;;;;6157588;22;20068;-88
2023/07/29 14:49:05;;;;;;;0.10;0.10;;;;;;;;;;6157752;23;20005;-90
2023/07/29 14:51:31;;;;;;;0.10;0.10;;;;;;;;;;6157375;23;20017;-90
2023/07/29 14:53:57;;;;;;;0.00;0.00;;;;;;;;;;6287762;22;20027;-89
2023/07/29 14:56:23;;;;;;;0.00;0.00;;;;;;;;;;6157049;23;20473;-91
2023/07/29 14:58:50;;;;;;;0.00;0.00;;;;;;;;;;6157817;23;20032;-89
2023/07/29 15:01:16;;;;;;;0.03;0.03;;;;;;;;;;6156854;23;20354;-90
2023/07/29 15:03:42;;;;;;;0.10;0.10;;;;;;;;;;6157211;23;20018;-89
2023/07/29 15:06:08;;;;;;;0.00;0.00;;;;;;;;;;6157898;22;20016;-90
2023/07/29 15:08:34;;;;;;;0.00;0.00;;;;;;;;;;6158010;22;20435;-92
2023/07/29 15:11:00;;;;;;;0.08;0.08;;;;;;;;;;6157775;22;20024;-92
2023/07/29 15:13:26;;;;;;;0.00;0.00;;;;;;;;;;6156071;22;20012;-91
2023/07/29 15:15:52;;;;;;;0.00;0.00;;;;;;;;;;6157675;23;20346;-91
2023/07/29 15:18:18;;;;;;;0.00;0.00;;;;;;;;;;6157333;22;20324;-90
2023/07/29 15:20:44;;;;;;;0.10;0.10;;;;;;;;;;6157595;23;20028;-90
2023/07/29 15:23:10;;;;;;;0.00;0.00;;;;;;;;;;6157039;23;20017;-90
2023/07/29 15:25:38;;;;;;;0.10;0.10;;;;;;;;;;6158893;23;20052;-91
2023/07/29 15:28:05;;;;;;;0.10;0.10;;;;;;;;;;6158217;22;20036;-91
2023/07/29 15:30:31;;;;;;;0.05;0.05;;;;;;;;;;6158895;23;20018;-91
2023/07/29 15:32:57;;;;;;;0.10;0.10;;;;;;;;;;6157481;22;20092;-92
2023/07/29 15:35:23;;;;;;;0.10;0.10;;;;;;;;;;6158406;23;20021;-91
2023/07/29 15:37:49;;;;;;;0.00;0.00;;;;;;;;;;6158459;23;20021;-91
2023/07/29 15:40:15;;;;;;;0.03;0.03;;;;;;;;;;6157110;22;20354;-91
2023/07/29 15:42:41;;;;;;;0.00;0.00;;;;;;;;;;6157091;23;20473;-89
2023/07/29 15:45:07;;;;;;;0.00;0.00;;;;;;;;;;6158116;23;20017;-90
2023/07/29 15:47:33;;;;;;;0.10;0.10;;;;;;;;;;6158068;22;20443;-89
2023/07/29 15:49:59;;;;;;;0.00;0.00;;;;;;;;;;6158655;23;20162;-90
2023/07/29 15:52:26;;;;;;;0.00;0.00;;;;;;;;;;6157035;22;20013;-90
2023/07/29 15:54:54;;;;;;;0.00;0.00;;;;;;;;;;6158125;22;20049;-91
2023/07/29 15:57:20;;;;;;;0.00;0.00;;;;;;;;;;6158613;22;20060;-91
2023/07/29 15:59:46;;;;;;;0.10;0.10;;;;;;;;;;6158478;23;20453;-92
2023/07/29 16:02:12;;;;;;;0.00;0.00;;;;;;;;;;6158409;22;20028;-88
2023/07/29 16:04:38;;;;;;;0.00;0.00;;;;;;;;;;6157116;22;20023;-91
2023/07/29 16:07:05;;;;;;;0.00;0.00;;;;;;;;;;6158437;23;20088;-91
2023/07/29 16:09:34;;;;;;;0.10;0.10;;;;;;;;;;6157754;23;20017;-91
2023/07/29 16:12:01;;;;;;;0.10;0.10;;;;;;;;;;6160307;22;20331;-91
2023/07/29 16:14:27;;;;;;;0.00;0.00;;;;;;;;;;6158364;22;20070;-90
2023/07/29 16:16:53;;;;;;;0.00;0.00;;;;;;;;;;6157928;22;20060;-89
2023/07/29 16:19:23;;;;;;;0.03;0.03;;;;;;;;;;6157980;22;20025;-87
2023/07/29 16:21:49;;;;;;;0.00;0.00;;;;;;;;;;6157155;22;20020;-89
2023/07/29 16:24:16;;;;;;;0.00;0.00;;;;;;;;;;6158128;23;20021;-90
2023/07/29 16:26:42;;;;;;;0.00;0.00;;;;;;;;;;6157372;22;20021;-90
2023/07/29 16:29:08;;;;;;;0.00;0.00;;;;;;;;;;6158134;22;20385;-89
2023/07/29 16:31:34;;;;;;;0.00;0.00;;;;;;;;;;6157348;22;20017;-90
2023/07/29 16:34:04;;;;;;;0.05;0.05;;;;;;;;;;6156306;23;20017;-91
2023/07/29 16:36:32;;;;;;;0.10;0.10;;;;;;;;;;6157253;22;20025;-89
2023/07/29 16:38:58;;;;;;;0.10;0.10;;;;;;;;;;6157961;22;20021;-89
2023/07/29 16:41:24;;;;;;;0.05;0.05;;;;;;;;;;6157922;22;20062;-89
2023/07/29 16:43:50;;;;;;;0.03;0.03;;;;;;;;;;6157139;22;20344;-89
2023/07/29 16:46:16;;;;;;;0.00;0.00;;;;;;;;;;6157580;23;20474;-90
2023/07/29 16:48:42;;;;;;;0.00;0.00;;;;;;;;;;6158182;22;20017;-90
2023/07/29 16:51:10;;;;;;;0.05;0.05;;;;;;;;;;6157276;22;20036;-89
2023/07/29 16:53:36;;;;;;;0.00;0.00;;;;;;;;;;6157444;23;20021;-90
2023/07/29 16:56:02;;;;;;;0.00;0.00;;;;;;;;;;6286052;22;20052;-89
2023/07/29 16:58:28;;;;;;;0.10;0.10;;;;;;;;;;6156580;23;20017;-89
2023/07/29 17:00:54;;;;;;;0.03;0.03;;;;;;;;;;6157086;23;20069;-89
2023/07/29 17:03:20;;;;;;;0.10;0.10;;;;;;;;;;6156652;22;20031;-89
2023/07/29 17:05:46;;;;;;;0.00;0.00;;;;;;;;;;6157200;23;20459;-89
2023/07/29 17:08:12;;;;;;;0.00;0.00;;;;;;;;;;6156927;23;20017;-89
2023/07/29 17:10:38;;;;;;;0.00;0.00;;;;;;;;;;6156867;22;20066;-89
2023/07/29 17:13:04;;;;;;;0.00;0.00;;;;;;;;;;6156466;23;20017;-87
2023/07/29 17:15:30;;;;;;;0.10;0.10;;;;;;;;;;6156091;22;20028;-87
2023/07/29 17:18:00;;;;;;;0.00;0.00;;;;;;;;;;6156584;22;20017;-88
2023/07/29 17:20:26;;;;;;;0.00;0.00;;;;;;;;;;6157272;22;20070;-89
2023/07/29 17:22:52;;;;;;;0.20;0.20;;;;;;;;;;6156507;22;20028;-88
2023/07/29 17:25:20;;;;;;;0.00;0.00;;;;;;;;;;6156852;23;20013;-88
2023/07/29 17:27:46;;;;;;;0.00;0.00;;;;;;;;;;6156558;22;20017;-88
2023/07/29 17:30:13;;;;;;;0.00;0.00;;;;;;;;;;6156232;23;20056;-89
2023/07/29 17:32:39;;;;;;;0.00;0.00;;;;;;;;;;6155630;22;20021;-88
2023/07/29 17:35:06;;;;;;;0.00;0.00;;;;;;;;;;6155678;22;20024;-89
2023/07/29 17:37:34;;;;;;;0.15;0.15;;;;;;;;;;6154355;23;20019;-88
2023/07/29 17:40:03;;;;;;;0.10;0.10;;;;;;;;;;6156591;23;20020;-87
2023/07/29 17:42:43;;;;;;;0.10;0.10;;;;;;;;;;6155571;22;20092;-90
2023/07/29 17:45:09;;;;;;;0.10;0.10;;;;;;;;;;6156844;23;20447;-88
2023/07/29 17:47:35;;;;;;;0.10;0.10;;;;;;;;;;6156769;22;20017;-89
2023/07/29 17:50:01;;;;;;;0.00;0.00;;;;;;;;;;6156713;22;20025;-89
2023/07/29 17:52:27;;;;;;;0.10;0.10;;;;;;;;;;6156295;23;20013;-88
2023/07/29 17:54:53;;;;;;;0.25;0.25;;;;;;;;;;6156580;22;20338;-88
2023/07/29 17:57:20;;;;;;;0.05;0.05;;;;;;;;;;6156569;22;20045;-88
2023/07/29 17:59:46;;;;;;;0.10;0.10;;;;;;;;;;6156071;22;20489;-89
2023/07/29 18:02:20;;;;;;;0.10;0.10;;;;;;;;;;6165954;23;20390;-88
2023/07/29 18:04:46;;;;;;;0.05;0.05;;;;;;;;;;6156794;23;20033;-88
2023/07/29 18:07:12;;;;;;;0.10;0.10;;;;;;;;;;6156232;22;20458;-88
2023/07/29 18:09:38;;;;;;;0.00;0.00;;;;;;;;;;6156009;22;20009;-89
2023/07/29 18:12:05;;;;;;;0.10;0.10;;;;;;;;;;6155790;22;20161;-89
2023/07/29 18:14:31;;;;;;;0.10;0.10;;;;;;;;;;6156223;22;20020;-88
2023/07/29 18:16:58;;;;;;;0.00;0.00;;;;;;;;;;6156639;23;20342;-90
2023/07/29 18:19:29;;;;;;;0.00;0.00;;;;;;;;;;6156591;23;20021;-88
2023/07/29 18:21:57;;;;;;;0.10;0.10;;;;;;;;;;6155585;22;20471;-89
2023/07/29 18:24:23;;;;;;;0.10;0.10;;;;;;;;;;6156213;22;20017;-89
2023/07/29 18:26:49;;;;;;;0.08;0.08;;;;;;;;;;6156235;22;20090;-89
2023/07/29 18:29:15;;;;;;;0.10;0.10;;;;;;;;;;6156532;22;20013;-89
2023/07/29 18:31:41;;;;;;;0.10;0.10;;;;;;;;;;6155444;23;20013;-88
2023/07/29 18:34:08;;;;;;;0.10;0.10;;;;;;;;;;6156297;23;20021;-88
2023/07/29 18:36:36;;;;;;;0.00;0.00;;;;;;;;;;6156166;22;20095;-88
2023/07/29 18:42:25;;;;;;;0.00;0.00;;;;;;;;;;6192045;23;20349;-88
2023/07/29 18:44:51;;;;;;;0.00;0.00;;;;;;;;;;6155883;22;20025;-88